»·PEaware :: N664ST KJFK-KEWR

N664ST :: KJFK-KEWR

FLIGHT INFORMATION

Flight Status: Arrived
Operator: Privately registered:
United States
More flights under this callsign
Pilot: Anonymous 328 (328)
Aircraft: Unknown
(GA7C)
More flights by this aircraft type
Origin: KJFK Kennedy Intl
United States
Destination: KEWR Newark Intl
United States
More flights between these airports :: More routes between these airports
Route: JFK V16 DIXIE V276 RBV V249 SBJ
File this flight plan on PilotEdge
Remarks:
Altitude:
(Current/Filed)
6,000ft
Speed:
(Current/Filed)
0kts
Departed: 18-Jan-22 03:33 PM
Arrived: 18-Jan-22 04:27 PM
Distance/Time
Traveled:
18nm/0:54
Distance/Time
To Go:
Arrived

Flight Plot

Page will automatically refresh every two minutes.

Flight plan parsing failed; only flown route is shown


Map Options




Map Legend


Flown Route
Filed Route
Departure Airport
Arrival Airport
Navaid (VOR, NDB)
Fix

Horizontal Profiles

Position Reports

Time Latitude Longitude Heading Altitude Ground
Speed
18-Jan-22 14:05 40.650547 -73.811073 231 20ft 0kts
18-Jan-22 14:06 40.650547 -73.811073 231 20ft 0kts
18-Jan-22 14:07 40.650547 -73.811073 231 20ft 0kts
18-Jan-22 14:08 40.650547 -73.811073 231 20ft 0kts
18-Jan-22 14:09 40.650547 -73.811073 231 20ft 0kts
18-Jan-22 14:10 40.650547 -73.811073 231 20ft 0kts
18-Jan-22 14:11 40.650547 -73.811073 231 20ft 0kts
18-Jan-22 14:13 40.650547 -73.811073 231 20ft 0kts
18-Jan-22 14:14 40.650547 -73.811073 231 20ft 0kts
18-Jan-22 14:15 40.650547 -73.811073 231 20ft 0kts
18-Jan-22 14:16 40.650547 -73.811073 231 20ft 0kts
18-Jan-22 14:17 40.650547 -73.811073 231 20ft 0kts
18-Jan-22 14:18 40.650547 -73.811073 231 20ft 0kts
18-Jan-22 14:19 40.650547 -73.811073 231 20ft 0kts
18-Jan-22 14:20 40.650547 -73.811073 231 20ft 0kts
18-Jan-22 14:21 40.650547 -73.811073 231 20ft 0kts
18-Jan-22 14:22 40.650547 -73.811073 231 20ft 0kts
18-Jan-22 14:23 40.650547 -73.811073 231 20ft 0kts
18-Jan-22 14:31 40.650547 -73.811073 231 20ft 0kts
18-Jan-22 14:32 40.650547 -73.811073 231 20ft 0kts
18-Jan-22 14:33 40.650547 -73.811073 231 20ft 0kts
18-Jan-22 14:34 40.650547 -73.811073 231 20ft 0kts
18-Jan-22 14:35 40.650547 -73.811073 231 20ft 0kts
18-Jan-22 14:36 40.650547 -73.811073 231 20ft 0kts
18-Jan-22 14:37 40.650547 -73.811073 231 20ft 0kts
18-Jan-22 14:38 40.650547 -73.811073 231 20ft 0kts
18-Jan-22 14:39 40.650547 -73.811073 231 20ft 0kts
18-Jan-22 14:40 40.650547 -73.811073 231 20ft 0kts
18-Jan-22 14:41 40.650547 -73.811073 231 20ft 0kts
18-Jan-22 14:42 40.650547 -73.811073 231 20ft 0kts
18-Jan-22 14:43 40.650547 -73.811073 231 20ft 0kts
18-Jan-22 14:44 40.650547 -73.811073 231 20ft 0kts
18-Jan-22 14:45 40.650547 -73.811073 231 20ft 0kts
18-Jan-22 14:46 40.650547 -73.811073 231 20ft 0kts
18-Jan-22 14:47 40.650547 -73.811073 231 20ft 0kts
18-Jan-22 14:48 40.650547 -73.811073 231 20ft 0kts
18-Jan-22 14:49 40.650547 -73.811073 231 20ft 0kts
18-Jan-22 14:50 40.650547 -73.811073 231 20ft 0kts
18-Jan-22 14:51 40.650547 -73.811073 231 20ft 0kts
18-Jan-22 14:52 40.650547 -73.811073 231 20ft 0kts
18-Jan-22 14:53 40.650547 -73.811073 231 20ft 0kts
18-Jan-22 14:54 40.650547 -73.811073 231 20ft 0kts
18-Jan-22 14:59 40.650547 -73.811073 231 20ft 0kts
18-Jan-22 15:00 40.650547 -73.811073 231 20ft 0kts
18-Jan-22 15:01 40.650547 -73.811073 231 20ft 0kts
18-Jan-22 15:03 40.650547 -73.811073 231 20ft 0kts
18-Jan-22 15:04 40.650547 -73.811073 231 20ft 0kts
18-Jan-22 15:05 40.650547 -73.811073 231 20ft 0kts
18-Jan-22 15:06 40.650547 -73.811073 231 20ft 0kts
18-Jan-22 15:07 40.650547 -73.811073 231 20ft 0kts
18-Jan-22 15:08 40.650547 -73.811073 231 20ft 0kts
18-Jan-22 15:09 40.650547 -73.811073 231 20ft 0kts
18-Jan-22 15:10 40.650547 -73.811073 231 20ft 0kts
18-Jan-22 15:11 40.650547 -73.811073 231 20ft 0kts
18-Jan-22 15:12 40.650547 -73.811073 231 20ft 0kts
18-Jan-22 15:13 40.650547 -73.811073 231 20ft 0kts
18-Jan-22 15:14 40.650547 -73.811073 231 20ft 0kts
18-Jan-22 15:15 40.650547 -73.811073 231 20ft 0kts
18-Jan-22 15:16 40.650547 -73.811073 231 20ft 0kts
18-Jan-22 15:17 40.650547 -73.811073 231 20ft 0kts
18-Jan-22 15:18 40.650547 -73.811073 231 20ft 0kts
18-Jan-22 15:19 40.650547 -73.811073 231 20ft 0kts
18-Jan-22 15:20 40.650547 -73.811073 231 20ft 0kts
18-Jan-22 15:21 40.650547 -73.811073 231 20ft 0kts
18-Jan-22 15:22 40.650547 -73.811073 231 20ft 0kts
18-Jan-22 15:23 40.650547 -73.811073 231 20ft 0kts
18-Jan-22 15:24 40.650547 -73.811073 231 20ft 0kts
18-Jan-22 15:25 40.650547 -73.811073 231 20ft 0kts
18-Jan-22 15:26 40.650547 -73.811073 231 20ft 0kts
18-Jan-22 15:27 40.650547 -73.811073 231 20ft 0kts
18-Jan-22 15:27 40.650547 -73.811073 231 20ft 0kts
18-Jan-22 15:29 40.649273 -73.812668 283 20ft 9kts
18-Jan-22 15:30 40.650150 -73.814705 297 20ft 0kts
18-Jan-22 15:31 40.649197 -73.815819 215 21ft 1kts
18-Jan-22 15:31 40.648239 -73.816345 145 21ft 6kts
18-Jan-22 15:32 40.646984 -73.813644 121 21ft 91kts
18-Jan-22 15:33 40.609703 -73.765717 147 3442ft 222kts
18-Jan-22 15:35 40.533154 -73.749687 217 5007ft 269kts
18-Jan-22 15:35 40.482903 -73.797768 216 5003ft 269kts
18-Jan-22 15:36 40.422516 -73.856049 216 5002ft 269kts
18-Jan-22 15:37 40.361980 -73.914078 216 5298ft 270kts
18-Jan-22 15:38 40.300865 -73.972595 216 6001ft 272kts
18-Jan-22 15:40 40.229420 -74.040871 216 6002ft 273kts
18-Jan-22 15:40 40.178200 -74.089661 216 6003ft 273kts
18-Jan-22 15:41 40.117970 -74.147507 220 6049ft 267kts
18-Jan-22 15:42 40.119625 -74.235115 298 6029ft 275kts
18-Jan-22 15:43 40.149895 -74.326775 292 5995ft 268kts
18-Jan-22 15:44 40.178787 -74.419136 292 5989ft 273kts
18-Jan-22 15:45 40.212654 -74.506424 317 6003ft 271kts
18-Jan-22 15:46 40.270683 -74.569824 320 6002ft 271kts
18-Jan-22 15:47 40.331139 -74.628471 340 6003ft 271kts
18-Jan-22 15:48 40.386547 -74.594193 55 6003ft 228kts
18-Jan-22 15:49 40.422249 -74.525627 55 4923ft 212kts
18-Jan-22 15:50 40.452496 -74.467232 55 3917ft 176kts
18-Jan-22 15:51 40.479225 -74.415550 55 3028ft 169kts
18-Jan-22 15:52 40.495316 -74.358665 71 2802ft 166kts
18-Jan-22 15:53 40.509678 -74.300751 71 2802ft 166kts
18-Jan-22 15:54 40.540676 -74.261848 25 2810ft 142kts
18-Jan-22 15:55 40.576160 -74.239082 25 2255ft 141kts
18-Jan-22 15:56 40.611408 -74.216560 25 1501ft 140kts
18-Jan-22 15:57 40.646229 -74.194153 25 774ft 138kts
18-Jan-22 15:58 40.681992 -74.171318 25 620ft 160kts
18-Jan-22 15:59 40.717846 -74.126175 47 1845ft 207kts
18-Jan-22 16:00 40.764557 -74.109642 306 3379ft 226kts
18-Jan-22 16:01 40.766933 -74.186264 266 4000ft 211kts
18-Jan-22 16:02 40.746342 -74.260986 206 4008ft 244kts
18-Jan-22 16:03 40.689442 -74.298912 207 4005ft 212kts
18-Jan-22 16:04 40.635735 -74.332962 186 3139ft 213kts
18-Jan-22 16:05 40.591110 -74.293152 137 2263ft 188kts
18-Jan-22 16:06 40.593231 -74.238808 57 1934ft 163kts
18-Jan-22 16:07 40.625145 -74.207878 25 1216ft 139kts
18-Jan-22 16:08 40.659752 -74.185699 25 495ft 137kts
18-Jan-22 16:09 40.695488 -74.163864 20 667ft 145kts
18-Jan-22 16:10 40.730068 -74.120110 48 2678ft 237kts
18-Jan-22 16:11 40.783913 -74.084480 358 2499ft 206kts
18-Jan-22 16:12 40.799137 -74.145470 256 3950ft 211kts
18-Jan-22 16:13 40.785530 -74.221153 256 4003ft 212kts
18-Jan-22 16:14 40.745529 -74.275406 216 4001ft 212kts
18-Jan-22 16:15 40.698135 -74.322258 217 4000ft 212kts
18-Jan-22 16:16 40.653759 -74.373146 227 4003ft 212kts
18-Jan-22 16:17 40.613365 -74.430107 227 4003ft 212kts
18-Jan-22 16:18 40.564934 -74.457329 156 4011ft 212kts
18-Jan-22 16:19 40.512653 -74.420799 151 4003ft 212kts
18-Jan-22 16:20 40.495975 -74.358910 72 3789ft 192kts
18-Jan-22 16:21 40.511234 -74.291840 73 3110ft 190kts
18-Jan-22 16:22 40.550179 -74.254982 25 2475ft 166kts
18-Jan-22 16:23 40.591347 -74.228813 25 1894ft 163kts
18-Jan-22 16:24 40.627308 -74.206055 25 1362ft 139kts
18-Jan-22 16:25 40.662170 -74.183929 26 618ft 138kts
18-Jan-22 16:26 40.693699 -74.164017 25 19ft 20kts
18-Jan-22 16:27 40.695641 -74.164047 295 19ft 0kts

Navigation Log

Ident Type
Flight plan parsing failed, navigation log unavailable